Le Boreal — FLSY — position and weather

sailwx.info

Track history (hours):
 
Tides and Currents Weather Stations Pressure Air Temp Water Temp Dewpoint Dewpoint Depression Visibility Wind Speed Wind Dir Waves Ship Positions

Le Boreal

Last reported at 2016-Dec-01 07:15 UTC. Time now 2016-Dec-02 18:06 UTC.
Position S 55°01' W 066°47'.

Length 140 m; draft 4.9 m.

Type: Passenger vessel. MMSI: 578000500.

Date/timePositionNaut miles runAvg speedWind from/ knotsBaromVisibWave heightAir tempDewpointWater temp
2016-Dec-01 07:15S 55°01' W 066°47'1515.6
2016-Dec-01 06:17S 54°55' W 067°12'1114.9
2016-Dec-01 05:33S 54°55' W 067°30'3 2.7
2016-Dec-01 04:20S 54°55' W 067°36'0 0.1
2016-Dec-01 03:29S 54°56' W 067°36'0 0.0
2016-Dec-01 02:32S 54°56' W 067°36'0 0.0
2016-Dec-01 01:33S 54°56' W 067°36'3 2.6
2016-Dec-01 00:33S 54°54' W 067°40'1615.8
2016-Nov-30 23:33S 54°51' W 068°07'7 6.6
2016-Nov-30 22:30S 54°49' W 068°18'0 0.0
2016-Nov-30 21:33S 54°49' W 068°18'0 0.0
2016-Nov-30 20:33S 54°49' W 068°18'0 0.0
2016-Nov-30 19:33S 54°49' W 068°18'0 0.0
2016-Nov-30 18:30S 54°49' W 068°18'0 0.0
2016-Nov-30 17:30S 54°49' W 068°18'0 0.0
2016-Nov-30 16:33S 54°49' W 068°18'0 0.0
2016-Nov-30 15:30S 54°49' W 068°18'0 0.0
2016-Nov-30 14:33S 54°49' W 068°18'0 0.0
2016-Nov-30 13:33S 54°49' W 068°18'0 0.0
2016-Nov-30 12:33S 54°49' W 068°18'0 0.0
2016-Nov-30 11:33S 54°49' W 068°18'0 0.0
2016-Nov-30 10:33S 54°49' W 068°18'0 0.0
2016-Nov-30 09:33S 54°49' W 068°18'0 0.0
2016-Nov-30 08:30S 54°49' W 068°18'0 0.0
2016-Nov-30 07:33S 54°49' W 068°18'0 0.0
2016-Nov-30 06:33S 54°49' W 068°18'0 0.0
2016-Nov-30 05:33S 54°49' W 068°18'0 0.0
2016-Nov-30 04:33S 54°49' W 068°18'0 0.0
2016-Nov-30 03:33S 54°49' W 068°18'0 0.0
2016-Nov-30 02:33S 54°49' W 068°18'0 0.0
2016-Nov-30 01:33S 54°49' W 068°18'0 0.0
2016-Nov-30 00:33S 54°49' W 068°18'0 0.0
2016-Nov-29 23:30S 54°49' W 068°18'0 0.0
2016-Nov-29 22:33S 54°49' W 068°18'0 0.0
2016-Nov-29 21:33S 54°49' W 068°18'4 4.5
2016-Nov-29 20:33S 54°50' W 068°11'1515.1
2016-Nov-29 19:33S 54°54' W 067°45'1413.7
2016-Nov-29 18:33S 54°55' W 067°21'2211.0
2016-Nov-29 16:34S 55°02' W 066°45'  
Track history (hours):
 
Tides and Currents Weather Stations Pressure Air Temp Water Temp Dewpoint Dewpoint Depression Visibility Wind Speed Wind Dir Waves Ship Positions

Le Boreal

Last reported at 2016-Dec-01 07:15 UTC. Time now 2016-Dec-02 18:06 UTC.
Position S 55°01' W 066°47'.

Length 140 m; draft 4.9 m.

Type: Passenger vessel. MMSI: 578000500.

Date/timePositionNaut miles runAvg speedWind from/ knotsBaromVisibWave heightAir tempDewpointWater temp
2016-Dec-01 07:15S 55°01' W 066°47'1515.6
2016-Dec-01 06:17S 54°55' W 067°12'1114.9
2016-Dec-01 05:33S 54°55' W 067°30'3 2.7
2016-Dec-01 04:20S 54°55' W 067°36'0 0.1
2016-Dec-01 03:29S 54°56' W 067°36'0 0.0
2016-Dec-01 02:32S 54°56' W 067°36'0 0.0
2016-Dec-01 01:33S 54°56' W 067°36'3 2.6
2016-Dec-01 00:33S 54°54' W 067°40'1615.8
2016-Nov-30 23:33S 54°51' W 068°07'7 6.6
2016-Nov-30 22:30S 54°49' W 068°18'0 0.0
2016-Nov-30 21:33S 54°49' W 068°18'0 0.0
2016-Nov-30 20:33S 54°49' W 068°18'0 0.0
2016-Nov-30 19:33S 54°49' W 068°18'0 0.0
2016-Nov-30 18:30S 54°49' W 068°18'0 0.0
2016-Nov-30 17:30S 54°49' W 068°18'0 0.0
2016-Nov-30 16:33S 54°49' W 068°18'0 0.0
2016-Nov-30 15:30S 54°49' W 068°18'0 0.0
2016-Nov-30 14:33S 54°49' W 068°18'0 0.0
2016-Nov-30 13:33S 54°49' W 068°18'0 0.0
2016-Nov-30 12:33S 54°49' W 068°18'0 0.0
2016-Nov-30 11:33S 54°49' W 068°18'0 0.0
2016-Nov-30 10:33S 54°49' W 068°18'0 0.0
2016-Nov-30 09:33S 54°49' W 068°18'0 0.0
2016-Nov-30 08:30S 54°49' W 068°18'0 0.0
2016-Nov-30 07:33S 54°49' W 068°18'0 0.0
2016-Nov-30 06:33S 54°49' W 068°18'0 0.0
2016-Nov-30 05:33S 54°49' W 068°18'0 0.0
2016-Nov-30 04:33S 54°49' W 068°18'0 0.0
2016-Nov-30 03:33S 54°49' W 068°18'0 0.0
2016-Nov-30 02:33S 54°49' W 068°18'0 0.0
2016-Nov-30 01:33S 54°49' W 068°18'0 0.0
2016-Nov-30 00:33S 54°49' W 068°18'0 0.0
2016-Nov-29 23:30S 54°49' W 068°18'0 0.0
2016-Nov-29 22:33S 54°49' W 068°18'0 0.0
2016-Nov-29 21:33S 54°49' W 068°18'4 4.5
2016-Nov-29 20:33S 54°50' W 068°11'1515.1
2016-Nov-29 19:33S 54°54' W 067°45'1413.7
2016-Nov-29 18:33S 54°55' W 067°21'2211.0
2016-Nov-29 16:34S 55°02' W 066°45'  

Dump ship's entire track history